sensor_id;sensor_type;location;lat;lon;timestamp;pressure;altitude;pressure_sealevel;temperature;humidity
3780;BME280;1905;52.482;9.802;2023-12-04T00:01:43;101410.31;;;0.18;92.88
3780;BME280;1905;52.482;9.802;2023-12-04T00:04:11;101417.22;;;0.19;93.22
3780;BME280;1905;52.482;9.802;2023-12-04T00:06:41;101409.41;;;0.18;92.71
3780;BME280;1905;52.482;9.802;2023-12-04T00:09:09;101405.94;;;0.17;93.41
3780;BME280;1905;52.482;9.802;2023-12-04T00:11:36;101400.72;;;0.14;93.20
3780;BME280;1905;52.482;9.802;2023-12-04T00:14:05;101392.91;;;0.11;93.36
3780;BME280;1905;52.482;9.802;2023-12-04T00:16:33;101395.56;;;0.16;93.34
3780;BME280;1905;52.482;9.802;2023-12-04T00:19:01;101390.38;;;0.16;92.96
3780;BME280;1905;52.482;9.802;2023-12-04T00:21:29;101392.91;;;0.11;93.39
3780;BME280;1905;52.482;9.802;2023-12-04T00:23:58;101395.53;;;0.13;93.25
3780;BME280;1905;52.482;9.802;2023-12-04T00:26:25;101382.53;;;0.14;92.89
3780;BME280;1905;52.482;9.802;2023-12-04T00:28:53;101395.56;;;0.17;92.90
3780;BME280;1905;52.482;9.802;2023-12-04T00:31:22;101392.97;;;0.17;92.76
3780;BME280;1905;52.482;9.802;2023-12-04T00:33:50;101390.38;;;0.17;92.89
3780;BME280;1905;52.482;9.802;2023-12-04T00:36:18;101381.69;;;0.15;92.46
3780;BME280;1905;52.482;9.802;2023-12-04T00:38:46;101385.19;;;0.16;93.09
3780;BME280;1905;52.482;9.802;2023-12-04T00:41:15;101389.50;;;0.17;92.76
3780;BME280;1905;52.482;9.802;2023-12-04T00:43:42;101386.91;;;0.15;93.11
3780;BME280;1905;52.482;9.802;2023-12-04T00:46:11;101378.25;;;0.18;92.83
3780;BME280;1905;52.482;9.802;2023-12-04T00:48:39;101371.34;;;0.18;92.80
3780;BME280;1905;52.482;9.802;2023-12-04T00:51:07;101360.09;;;0.19;92.72
3780;BME280;1905;52.482;9.802;2023-12-04T00:53:35;101355.75;;;0.17;92.87
3780;BME280;1905;52.482;9.802;2023-12-04T00:56:03;101350.56;;;0.18;92.98
3780;BME280;1905;52.482;9.802;2023-12-04T00:58:32;101353.19;;;0.18;92.99
3780;BME280;1905;52.482;9.802;2023-12-04T01:01:00;101338.44;;;0.17;92.92
3780;BME280;1905;52.482;9.802;2023-12-04T01:03:27;101328.94;;;0.19;92.86
3780;BME280;1905;52.482;9.802;2023-12-04T01:06:00;101328.94;;;0.19;92.96
3780;BME280;1905;52.482;9.802;2023-12-04T01:08:28;101327.22;;;0.18;92.95
3780;BME280;1905;52.482;9.802;2023-12-04T01:10:56;101321.13;;;0.16;92.82
3780;BME280;1905;52.482;9.802;2023-12-04T01:13:23;101307.31;;;0.20;92.86
3780;BME280;1905;52.482;9.802;2023-12-04T01:15:51;101303.84;;;0.20;92.98
3780;BME280;1905;52.482;9.802;2023-12-04T01:18:19;101304.69;;;0.17;92.83
3780;BME280;1905;52.482;9.802;2023-12-04T01:20:46;101297.75;;;0.13;92.56
3780;BME280;1905;52.482;9.802;2023-12-04T01:23:16;101299.50;;;0.17;92.55
3780;BME280;1905;52.482;9.802;2023-12-04T01:25:44;101297.78;;;0.16;93.26
3780;BME280;1905;52.482;9.802;2023-12-04T01:28:11;101294.31;;;0.20;92.88
3780;BME280;1905;52.482;9.802;2023-12-04T01:30:40;101287.38;;;0.16;92.66
3780;BME280;1905;52.482;9.802;2023-12-04T01:33:08;101287.41;;;0.22;92.42
3780;BME280;1905;52.482;9.802;2023-12-04T01:35:36;101283.94;;;0.19;92.55
3780;BME280;1905;52.482;9.802;2023-12-04T01:38:03;101282.19;;;0.19;92.00
3780;BME280;1905;52.482;9.802;2023-12-04T01:40:32;101282.22;;;0.22;91.80
3780;BME280;1905;52.482;9.802;2023-12-04T01:43:01;101282.22;;;0.22;92.07
3780;BME280;1905;52.482;9.802;2023-12-04T01:45:29;101270.94;;;0.16;91.69
3780;BME280;1905;52.482;9.802;2023-12-04T01:47:57;101270.06;;;0.15;91.93
3780;BME280;1905;52.482;9.802;2023-12-04T01:50:25;101263.13;;;0.14;92.04
3780;BME280;1905;52.482;9.802;2023-12-04T01:52:53;101263.13;;;0.14;92.26
3780;BME280;1905;52.482;9.802;2023-12-04T01:55:21;101257.94;;;0.17;92.31
3780;BME280;1905;52.482;9.802;2023-12-04T01:57:50;101256.22;;;0.19;91.99
3780;BME280;1905;52.482;9.802;2023-12-04T02:00:18;101254.53;;;0.21;92.39
3780;BME280;1905;52.482;9.802;2023-12-04T02:02:47;101251.03;;;0.19;92.01
3780;BME280;1905;52.482;9.802;2023-12-04T02:05:16;101243.25;;;0.19;92.00
3780;BME280;1905;52.482;9.802;2023-12-04T02:07:44;101244.97;;;0.16;92.45
3780;BME280;1905;52.482;9.802;2023-12-04T02:10:11;101240.66;;;0.16;93.02
3780;BME280;1905;52.482;9.802;2023-12-04T02:12:39;101248.47;;;0.21;92.44
3780;BME280;1905;52.482;9.802;2023-12-04T02:15:09;101238.94;;;0.21;92.39
3780;BME280;1905;52.482;9.802;2023-12-04T02:17:37;101240.66;;;0.22;92.64
3780;BME280;1905;52.482;9.802;2023-12-04T02:20:07;101238.94;;;0.21;93.06
3780;BME280;1905;52.482;9.802;2023-12-04T02:22:37;101234.56;;;0.17;93.19
3780;BME280;1905;52.482;9.802;2023-12-04T02:25:08;101225.94;;;0.20;93.33
3780;BME280;1905;52.482;9.802;2023-12-04T02:27:56;101225.94;;;0.20;93.40
3780;BME280;1905;52.482;9.802;2023-12-04T02:30:26;101219.06;;;0.22;93.12
3780;BME280;1905;52.482;9.802;2023-12-04T02:32:58;101219.91;;;0.22;93.17
3780;BME280;1905;52.482;9.802;2023-12-04T02:35:29;101216.44;;;0.20;93.31
3780;BME280;1905;52.482;9.802;2023-12-04T02:38:00;101206.91;;;0.21;93.44
3780;BME280;1905;52.482;9.802;2023-12-04T02:40:29;101211.25;;;0.20;93.62
3780;BME280;1905;52.482;9.802;2023-12-04T02:42:57;101202.59;;;0.21;93.83
3780;BME280;1905;52.482;9.802;2023-12-04T02:45:25;101198.25;;;0.20;93.55
3780;BME280;1905;52.482;9.802;2023-12-04T02:47:52;101196.56;;;0.25;93.77
3780;BME280;1905;52.482;9.802;2023-12-04T02:50:20;101189.63;;;0.21;93.80
3780;BME280;1905;52.482;9.802;2023-12-04T02:52:48;101189.63;;;0.23;93.75
3780;BME280;1905;52.482;9.802;2023-12-04T02:55:16;101180.13;;;0.26;93.65
3780;BME280;1905;52.482;9.802;2023-12-04T02:57:45;101173.16;;;0.22;93.86
3780;BME280;1905;52.482;9.802;2023-12-04T03:00:12;101176.66;;;0.27;93.68
3780;BME280;1905;52.482;9.802;2023-12-04T03:02:40;101176.66;;;0.27;94.04
3780;BME280;1905;52.482;9.802;2023-12-04T03:05:08;101174.06;;;0.27;93.73
3780;BME280;1905;52.482;9.802;2023-12-04T03:07:36;101171.47;;;0.29;93.53
3780;BME280;1905;52.482;9.802;2023-12-04T03:10:04;101171.50;;;0.33;93.60
3780;BME280;1905;52.482;9.802;2023-12-04T03:12:32;101164.56;;;0.29;93.68
3780;BME280;1905;52.482;9.802;2023-12-04T03:15:01;101164.56;;;0.29;93.59
3780;BME280;1905;52.482;9.802;2023-12-04T03:17:29;101158.50;;;0.30;93.86
3780;BME280;1905;52.482;9.802;2023-12-04T03:19:57;101164.56;;;0.29;93.47
3780;BME280;1905;52.482;9.802;2023-12-04T03:22:24;101159.38;;;0.32;94.19
3780;BME280;1905;52.482;9.802;2023-12-04T03:24:52;101159.38;;;0.32;93.00
3780;BME280;1905;52.482;9.802;2023-12-04T03:27:19;101156.78;;;0.34;93.65
3780;BME280;1905;52.482;9.802;2023-12-04T03:29:47;101155.06;;;0.36;93.53
3780;BME280;1905;52.482;9.802;2023-12-04T03:32:16;101154.22;;;0.35;93.15
3780;BME280;1905;52.482;9.802;2023-12-04T03:34:43;101149.88;;;0.34;93.98
3780;BME280;1905;52.482;9.802;2023-12-04T03:37:11;101143.81;;;0.35;93.07
3780;BME280;1905;52.482;9.802;2023-12-04T03:39:39;101138.63;;;0.35;93.34
3780;BME280;1905;52.482;9.802;2023-12-04T03:42:06;101141.22;;;0.38;93.10
3780;BME280;1905;52.482;9.802;2023-12-04T03:44:34;101136.03;;;0.35;93.50
3780;BME280;1905;52.482;9.802;2023-12-04T03:47:01;101136.88;;;0.36;93.17
3780;BME280;1905;52.482;9.802;2023-12-04T03:49:31;101123.91;;;0.39;93.22
3780;BME280;1905;52.482;9.802;2023-12-04T03:51:58;101124.78;;;0.35;92.44
3780;BME280;1905;52.482;9.802;2023-12-04T03:54:26;101122.16;;;0.36;93.65
3780;BME280;1905;52.482;9.802;2023-12-04T03:56:54;101118.72;;;0.37;93.12
3780;BME280;1905;52.482;9.802;2023-12-04T03:59:21;101110.94;;;0.40;93.25
3780;BME280;1905;52.482;9.802;2023-12-04T04:01:49;101109.19;;;0.39;93.18
3780;BME280;1905;52.482;9.802;2023-12-04T04:04:17;101100.56;;;0.40;93.69
3780;BME280;1905;52.482;9.802;2023-12-04T04:06:46;101107.47;;;0.41;93.10
3780;BME280;1905;52.482;9.802;2023-12-04T04:09:14;101102.28;;;0.41;93.14
3780;BME280;1905;52.482;9.802;2023-12-04T04:11:43;101090.19;;;0.43;93.66
3780;BME280;1905;52.482;9.802;2023-12-04T04:14:10;101091.88;;;0.41;93.27
3780;BME280;1905;52.482;9.802;2023-12-04T04:16:38;101083.25;;;0.42;93.07
3780;BME280;1905;52.482;9.802;2023-12-04T04:19:06;101090.16;;;0.46;92.90
3780;BME280;1905;52.482;9.802;2023-12-04T04:21:34;101082.38;;;0.45;92.71
3780;BME280;1905;52.482;9.802;2023-12-04T04:24:03;101082.38;;;0.43;92.77
3780;BME280;1905;52.482;9.802;2023-12-04T04:26:56;101076.31;;;0.44;93.01
3780;BME280;1905;52.482;9.802;2023-12-04T04:29:26;101077.19;;;0.40;92.92
3780;BME280;1905;52.482;9.802;2023-12-04T04:31:53;101079.78;;;0.43;92.77
3780;BME280;1905;52.482;9.802;2023-12-04T04:34:21;101071.13;;;0.44;92.67
3780;BME280;1905;52.482;9.802;2023-12-04T04:36:51;101071.13;;;0.43;93.01
3780;BME280;1905;52.482;9.802;2023-12-04T04:39:20;101071.09;;;0.41;92.54
3780;BME280;1905;52.482;9.802;2023-12-04T04:41:48;101065.91;;;0.41;93.14
3780;BME280;1905;52.482;9.802;2023-12-04T04:44:17;101072.84;;;0.42;92.75
3780;BME280;1905;52.482;9.802;2023-12-04T04:46:44;101066.78;;;0.45;93.09
3780;BME280;1905;52.482;9.802;2023-12-04T04:49:13;101060.72;;;0.44;92.92
3780;BME280;1905;52.482;9.802;2023-12-04T04:51:42;101060.72;;;0.44;93.03
3780;BME280;1905;52.482;9.802;2023-12-04T04:54:09;101064.22;;;0.48;93.08
3780;BME280;1905;52.482;9.802;2023-12-04T04:56:38;101068.53;;;0.47;92.94
3780;BME280;1905;52.482;9.802;2023-12-04T04:59:06;101067.69;;;0.48;92.76
3780;BME280;1905;52.482;9.802;2023-12-04T05:01:33;101057.28;;;0.48;92.76
3780;BME280;1905;52.482;9.802;2023-12-04T05:04:01;101052.94;;;0.47;93.17
3780;BME280;1905;52.482;9.802;2023-12-04T05:06:29;101057.28;;;0.48;93.10
3780;BME280;1905;52.482;9.802;2023-12-04T05:08:57;101041.72;;;0.48;92.74
3780;BME280;1905;52.482;9.802;2023-12-04T05:11:25;101036.50;;;0.48;93.12
3780;BME280;1905;52.482;9.802;2023-12-04T05:13:54;101031.31;;;0.45;92.98
3780;BME280;1905;52.482;9.802;2023-12-04T05:16:22;101028.72;;;0.48;92.48
3780;BME280;1905;52.482;9.802;2023-12-04T05:18:49;101036.50;;;0.48;92.72
3780;BME280;1905;52.482;9.802;2023-12-04T05:21:17;101037.38;;;0.50;92.23
3780;BME280;1905;52.482;9.802;2023-12-04T05:23:44;101034.78;;;0.50;92.39
3780;BME280;1905;52.482;9.802;2023-12-04T05:26:12;101033.91;;;0.48;92.06
3780;BME280;1905;52.482;9.802;2023-12-04T05:28:40;101026.97;;;0.47;92.18
3780;BME280;1905;52.482;9.802;2023-12-04T05:31:08;101033.06;;;0.51;92.41
3780;BME280;1905;52.482;9.802;2023-12-04T05:33:36;101023.53;;;0.53;92.21
3780;BME280;1905;52.482;9.802;2023-12-04T05:36:09;101020.03;;;0.49;91.40
3780;BME280;1905;52.482;9.802;2023-12-04T05:38:36;101015.72;;;0.45;91.52
3780;BME280;1905;52.482;9.802;2023-12-04T05:41:04;101007.03;;;0.46;91.96
3780;BME280;1905;52.482;9.802;2023-12-04T05:43:32;101007.06;;;0.49;91.10
3780;BME280;1905;52.482;9.802;2023-12-04T05:45:59;101003.59;;;0.50;91.20
3780;BME280;1905;52.482;9.802;2023-12-04T05:48:28;101001.84;;;0.49;91.60
3780;BME280;1905;52.482;9.802;2023-12-04T05:50:56;101007.94;;;0.48;91.67
3780;BME280;1905;52.482;9.802;2023-12-04T05:53:23;100998.41;;;0.50;91.84
3780;BME280;1905;52.482;9.802;2023-12-04T05:55:51;101009.66;;;0.52;91.52
3780;BME280;1905;52.482;9.802;2023-12-04T05:58:18;101001.88;;;0.55;91.37
3780;BME280;1905;52.482;9.802;2023-12-04T06:00:46;101006.22;;;0.53;91.61
3780;BME280;1905;52.482;9.802;2023-12-04T06:03:14;101000.13;;;0.54;91.02
3780;BME280;1905;52.482;9.802;2023-12-04T06:05:43;100999.28;;;0.55;91.07
3780;BME280;1905;52.482;9.802;2023-12-04T06:08:10;101000.13;;;0.54;91.01
3780;BME280;1905;52.482;9.802;2023-12-04T06:10:38;100992.38;;;0.59;91.50
3780;BME280;1905;52.482;9.802;2023-12-04T06:13:05;100995.81;;;0.53;91.71
3780;BME280;1905;52.482;9.802;2023-12-04T06:15:33;100989.75;;;0.56;90.78
3780;BME280;1905;52.482;9.802;2023-12-04T06:18:01;100979.34;;;0.57;91.16
3780;BME280;1905;52.482;9.802;2023-12-04T06:20:28;100981.97;;;0.57;90.68
3780;BME280;1905;52.482;9.802;2023-12-04T06:22:58;100970.72;;;0.58;90.56
3780;BME280;1905;52.482;9.802;2023-12-04T06:25:26;100974.16;;;0.57;90.74
3780;BME280;1905;52.482;9.802;2023-12-04T06:27:54;100970.72;;;0.58;91.27
3780;BME280;1905;52.482;9.802;2023-12-04T06:30:22;100970.69;;;0.55;91.17
3780;BME280;1905;52.482;9.802;2023-12-04T06:32:51;100972.44;;;0.56;91.10
3780;BME280;1905;52.482;9.802;2023-12-04T06:35:19;100970.72;;;0.57;91.08
3780;BME280;1905;52.482;9.802;2023-12-04T06:37:48;100974.16;;;0.60;91.45
3780;BME280;1905;52.482;9.802;2023-12-04T06:40:18;100969.84;;;0.58;90.72
3780;BME280;1905;52.482;9.802;2023-12-04T06:42:46;100975.06;;;0.59;90.99
3780;BME280;1905;52.482;9.802;2023-12-04T06:45:15;100972.47;;;0.59;91.67
3780;BME280;1905;52.482;9.802;2023-12-04T06:47:43;100968.97;;;0.60;91.21
3780;BME280;1905;52.482;9.802;2023-12-04T06:50:13;100968.97;;;0.64;90.80
3780;BME280;1905;52.482;9.802;2023-12-04T06:52:40;100964.66;;;0.64;90.72
3780;BME280;1905;52.482;9.802;2023-12-04T06:55:08;100966.38;;;0.64;91.25
3780;BME280;1905;52.482;9.802;2023-12-04T06:57:37;100966.38;;;0.60;91.45
3780;BME280;1905;52.482;9.802;2023-12-04T07:00:06;100964.66;;;0.64;90.82
3780;BME280;1905;52.482;9.802;2023-12-04T07:02:48;100962.94;;;0.65;90.61
3780;BME280;1905;52.482;9.802;2023-12-04T07:05:16;100960.31;;;0.62;90.69
3780;BME280;1905;52.482;9.802;2023-12-04T07:07:44;100959.47;;;0.64;91.34
3780;BME280;1905;52.482;9.802;2023-12-04T07:10:12;100965.53;;;0.69;91.30
3780;BME280;1905;52.482;9.802;2023-12-04T07:12:44;100966.38;;;0.68;91.18
3780;BME280;1905;52.482;9.802;2023-12-04T07:15:12;100962.94;;;0.69;91.00
3780;BME280;1905;52.482;9.802;2023-12-04T07:17:40;100966.41;;;0.70;90.65
3780;BME280;1905;52.482;9.802;2023-12-04T07:20:08;100968.13;;;0.69;91.22
3780;BME280;1905;52.482;9.802;2023-12-04T07:22:38;100975.06;;;0.72;91.11
3780;BME280;1905;52.482;9.802;2023-12-04T07:25:06;100969.84;;;0.72;89.84
3780;BME280;1905;52.482;9.802;2023-12-04T07:27:34;100976.78;;;0.73;91.13
3780;BME280;1905;52.482;9.802;2023-12-04T07:30:05;100979.38;;;0.74;90.72
3780;BME280;1905;52.482;9.802;2023-12-04T07:32:33;100983.72;;;0.71;90.18
3780;BME280;1905;52.482;9.802;2023-12-04T07:35:02;100981.13;;;0.77;91.13
3780;BME280;1905;52.482;9.802;2023-12-04T07:37:29;100970.72;;;0.77;90.14
3780;BME280;1905;52.482;9.802;2023-12-04T07:39:58;100975.91;;;0.77;90.73
3780;BME280;1905;52.482;9.802;2023-12-04T07:42:26;100974.19;;;0.76;91.04
3780;BME280;1905;52.482;9.802;2023-12-04T07:44:54;100981.13;;;0.77;90.85
3780;BME280;1905;52.482;9.802;2023-12-04T07:47:23;100962.06;;;0.78;90.92
3780;BME280;1905;52.482;9.802;2023-12-04T07:49:51;100967.28;;;0.81;91.10
3780;BME280;1905;52.482;9.802;2023-12-04T07:52:19;100966.41;;;0.83;90.79
3780;BME280;1905;52.482;9.802;2023-12-04T07:54:47;100974.22;;;0.79;91.41
3780;BME280;1905;52.482;9.802;2023-12-04T07:57:15;100968.13;;;0.78;90.57
3780;BME280;1905;52.482;9.802;2023-12-04T07:59:42;100962.06;;;0.82;91.06
3780;BME280;1905;52.482;9.802;2023-12-04T08:02:12;100966.38;;;0.82;89.95
3780;BME280;1905;52.482;9.802;2023-12-04T08:04:41;100967.28;;;0.81;91.27
3780;BME280;1905;52.482;9.802;2023-12-04T08:07:08;100958.59;;;0.82;89.07
3780;BME280;1905;52.482;9.802;2023-12-04T08:09:37;100961.22;;;0.83;90.37
3780;BME280;1905;52.482;9.802;2023-12-04T08:12:05;100961.22;;;0.86;90.27
3780;BME280;1905;52.482;9.802;2023-12-04T08:14:33;100960.34;;;0.86;89.33
3780;BME280;1905;52.482;9.802;2023-12-04T08:17:00;100956.00;;;0.88;89.56
3780;BME280;1905;52.482;9.802;2023-12-04T08:19:28;100960.34;;;0.89;90.05
3780;BME280;1905;52.482;9.802;2023-12-04T08:21:57;100956.00;;;0.91;90.59
3780;BME280;1905;52.482;9.802;2023-12-04T08:24:25;100949.06;;;0.88;90.44
3780;BME280;1905;52.482;9.802;2023-12-04T08:26:53;100948.19;;;0.88;90.74
3780;BME280;1905;52.482;9.802;2023-12-04T08:29:21;100949.06;;;0.90;90.98
3780;BME280;1905;52.482;9.802;2023-12-04T08:31:49;100945.59;;;0.91;89.68
3780;BME280;1905;52.482;9.802;2023-12-04T08:34:16;100939.56;;;0.95;89.93
3780;BME280;1905;52.482;9.802;2023-12-04T08:36:44;100948.19;;;0.91;89.95
3780;BME280;1905;52.482;9.802;2023-12-04T08:39:14;100944.75;;;0.95;88.77
3780;BME280;1905;52.482;9.802;2023-12-04T08:41:45;100933.47;;;0.94;88.94
3780;BME280;1905;52.482;9.802;2023-12-04T08:44:26;100932.59;;;0.94;90.71
3780;BME280;1905;52.482;9.802;2023-12-04T08:46:54;100930.88;;;0.96;90.22
3780;BME280;1905;52.482;9.802;2023-12-04T08:49:24;100937.81;;;0.97;90.89
3780;BME280;1905;52.482;9.802;2023-12-04T08:52:05;100938.69;;;0.97;90.84
3780;BME280;1905;52.482;9.802;2023-12-04T08:54:35;100935.19;;;0.98;89.42
3780;BME280;1905;52.482;9.802;2023-12-04T08:57:03;100930.88;;;0.99;89.46
3780;BME280;1905;52.482;9.802;2023-12-04T08:59:32;100932.59;;;1.03;90.26
3780;BME280;1905;52.482;9.802;2023-12-04T09:02:00;100929.13;;;1.01;90.53
3780;BME280;1905;52.482;9.802;2023-12-04T09:04:30;100923.91;;;1.04;90.89
3780;BME280;1905;52.482;9.802;2023-12-04T09:06:58;100919.59;;;1.04;90.94
3780;BME280;1905;52.482;9.802;2023-12-04T09:09:28;100917.88;;;0.99;90.39
3780;BME280;1905;52.482;9.802;2023-12-04T09:11:59;100918.72;;;1.04;90.64
3780;BME280;1905;52.482;9.802;2023-12-04T09:14:26;100917.00;;;1.06;90.84
3780;BME280;1905;52.482;9.802;2023-12-04T09:16:55;100916.97;;;1.09;90.88
3780;BME280;1905;52.482;9.802;2023-12-04T09:19:23;100917.88;;;1.08;90.46
3780;BME280;1905;52.482;9.802;2023-12-04T09:21:51;100918.75;;;1.08;90.69
3780;BME280;1905;52.482;9.802;2023-12-04T09:24:33;100917.00;;;1.06;90.67
3780;BME280;1905;52.482;9.802;2023-12-04T09:27:03;100916.97;;;1.09;90.51
3780;BME280;1905;52.482;9.802;2023-12-04T09:29:33;100914.38;;;1.13;90.84
3780;BME280;1905;52.482;9.802;2023-12-04T09:32:01;100913.50;;;1.16;90.50
3780;BME280;1905;52.482;9.802;2023-12-04T09:34:29;100915.22;;;1.17;90.55
3780;BME280;1905;52.482;9.802;2023-12-04T09:36:56;100908.31;;;1.19;89.95
3780;BME280;1905;52.482;9.802;2023-12-04T09:39:36;100905.69;;;1.17;90.03
3780;BME280;1905;52.482;9.802;2023-12-04T09:42:06;100909.16;;;1.15;90.11
3780;BME280;1905;52.482;9.802;2023-12-04T09:44:36;100904.84;;;1.14;90.22
3780;BME280;1905;52.482;9.802;2023-12-04T09:47:04;100903.97;;;1.19;90.14
3780;BME280;1905;52.482;9.802;2023-12-04T09:49:32;100903.97;;;1.19;89.76
3780;BME280;1905;52.482;9.802;2023-12-04T09:52:01;100897.91;;;1.19;89.80
3780;BME280;1905;52.482;9.802;2023-12-04T09:54:30;100903.09;;;1.17;88.84
3780;BME280;1905;52.482;9.802;2023-12-04T09:56:58;100896.19;;;1.19;89.73
3780;BME280;1905;52.482;9.802;2023-12-04T09:59:27;100895.31;;;1.19;89.05
3780;BME280;1905;52.482;9.802;2023-12-04T10:01:57;100890.97;;;1.21;89.18
3780;BME280;1905;52.482;9.802;2023-12-04T10:04:25;100889.22;;;1.23;89.57
3780;BME280;1905;52.482;9.802;2023-12-04T10:06:52;100881.44;;;1.22;89.37
3780;BME280;1905;52.482;9.802;2023-12-04T10:09:20;100884.88;;;1.24;89.13
3780;BME280;1905;52.482;9.802;2023-12-04T10:11:50;100873.59;;;1.26;89.51
3780;BME280;1905;52.482;9.802;2023-12-04T10:14:19;100874.47;;;1.24;88.04
3780;BME280;1905;52.482;9.802;2023-12-04T10:16:49;100873.59;;;1.29;89.32
3780;BME280;1905;52.482;9.802;2023-12-04T10:19:18;100870.16;;;1.27;89.23
3780;BME280;1905;52.482;9.802;2023-12-04T10:21:48;100865.78;;;1.32;89.26
3780;BME280;1905;52.482;9.802;2023-12-04T10:24:31;100858.00;;;1.29;90.03
3780;BME280;1905;52.482;9.802;2023-12-04T10:27:00;100847.56;;;1.35;89.57
3780;BME280;1905;52.482;9.802;2023-12-04T10:29:29;100849.28;;;1.39;88.92
3780;BME280;1905;52.482;9.802;2023-12-04T10:32:02;100851.00;;;1.43;89.20
3780;BME280;1905;52.482;9.802;2023-12-04T10:34:30;100841.47;;;1.44;88.58
3780;BME280;1905;52.482;9.802;2023-12-04T10:37:02;100843.19;;;1.43;87.92
3780;BME280;1905;52.482;9.802;2023-12-04T10:39:31;100841.44;;;1.48;86.42
3780;BME280;1905;52.482;9.802;2023-12-04T10:42:00;100834.50;;;1.49;88.54
3780;BME280;1905;52.482;9.802;2023-12-04T10:44:30;100823.25;;;1.45;87.26
3780;BME280;1905;52.482;9.802;2023-12-04T10:47:00;100824.97;;;1.46;86.39
3780;BME280;1905;52.482;9.802;2023-12-04T10:49:29;100814.53;;;1.52;87.08
3780;BME280;1905;52.482;9.802;2023-12-04T10:51:58;100819.72;;;1.55;87.93
3780;BME280;1905;52.482;9.802;2023-12-04T10:54:28;100807.59;;;1.54;87.56
3780;BME280;1905;52.482;9.802;2023-12-04T10:56:59;100813.66;;;1.55;87.59
3780;BME280;1905;52.482;9.802;2023-12-04T10:59:33;100812.78;;;1.57;86.17
3780;BME280;1905;52.482;9.802;2023-12-04T11:02:05;100804.97;;;1.57;85.14
3780;BME280;1905;52.482;9.802;2023-12-04T11:04:37;100795.41;;;1.62;86.93
3780;BME280;1905;52.482;9.802;2023-12-04T11:07:06;100797.13;;;1.63;85.55
3780;BME280;1905;52.482;9.802;2023-12-04T11:09:36;100798.00;;;1.64;86.17
3780;BME280;1905;52.482;9.802;2023-12-04T11:12:08;100801.47;;;1.64;85.67
3780;BME280;1905;52.482;9.802;2023-12-04T11:14:42;100797.09;;;1.71;86.56
3780;BME280;1905;52.482;9.802;2023-12-04T11:17:14;100798.84;;;1.67;84.45
3780;BME280;1905;52.482;9.802;2023-12-04T11:19:49;100790.19;;;1.68;86.01
3780;BME280;1905;52.482;9.802;2023-12-04T11:22:21;100790.19;;;1.68;84.49
3780;BME280;1905;52.482;9.802;2023-12-04T11:24:48;100795.38;;;1.68;86.17
3780;BME280;1905;52.482;9.802;2023-12-04T11:27:17;100783.22;;;1.70;86.21
3780;BME280;1905;52.482;9.802;2023-12-04T11:29:47;100787.53;;;1.71;85.93
3780;BME280;1905;52.482;9.802;2023-12-04T11:32:16;100778.00;;;1.73;85.41
3780;BME280;1905;52.482;9.802;2023-12-04T11:34:49;100777.97;;;1.76;84.37
3780;BME280;1905;52.482;9.802;2023-12-04T11:37:19;100772.72;;;1.79;84.97
3780;BME280;1905;52.482;9.802;2023-12-04T11:39:49;100766.69;;;1.76;85.12
3780;BME280;1905;52.482;9.802;2023-12-04T11:42:22;100771.88;;;1.79;85.15
3780;BME280;1905;52.482;9.802;2023-12-04T11:44:55;100777.09;;;1.79;85.37
3780;BME280;1905;52.482;9.802;2023-12-04T11:47:24;100767.56;;;1.76;84.59
3780;BME280;1905;52.482;9.802;2023-12-04T11:49:53;100765.81;;;1.75;85.79
3780;BME280;1905;52.482;9.802;2023-12-04T11:52:32;100758.84;;;1.80;85.32
3780;BME280;1905;52.482;9.802;2023-12-04T11:55:01;100756.25;;;1.80;87.48
3780;BME280;1905;52.482;9.802;2023-12-04T11:57:32;100742.38;;;1.82;84.76
3780;BME280;1905;52.482;9.802;2023-12-04T12:00:12;100738.84;;;1.87;84.80
3780;BME280;1905;52.482;9.802;2023-12-04T12:02:41;100740.63;;;1.80;83.76
3780;BME280;1905;52.482;9.802;2023-12-04T12:05:36;100742.34;;;1.83;83.50
3780;BME280;1905;52.482;9.802;2023-12-04T12:08:06;100730.22;;;1.82;82.72
3780;BME280;1905;52.482;9.802;2023-12-04T12:10:34;100729.31;;;1.83;85.04
3780;BME280;1905;52.482;9.802;2023-12-04T12:13:02;100724.97;;;1.87;85.38
3780;BME280;1905;52.482;9.802;2023-12-04T12:15:32;100720.63;;;1.83;84.93
3780;BME280;1905;52.482;9.802;2023-12-04T12:18:00;100717.13;;;1.88;86.42
3780;BME280;1905;52.482;9.802;2023-12-04T12:20:27;100712.78;;;1.90;85.92
3780;BME280;1905;52.482;9.802;2023-12-04T12:22:56;100705.00;;;1.86;84.45
3780;BME280;1905;52.482;9.802;2023-12-04T12:25:24;100701.53;;;1.87;84.80
3780;BME280;1905;52.482;9.802;2023-12-04T12:27:52;100701.53;;;1.87;84.14
3780;BME280;1905;52.482;9.802;2023-12-04T12:30:21;100687.63;;;1.88;83.25
3780;BME280;1905;52.482;9.802;2023-12-04T12:32:50;100694.59;;;1.86;84.62
3780;BME280;1905;52.482;9.802;2023-12-04T12:35:18;100686.78;;;1.86;85.64
3780;BME280;1905;52.482;9.802;2023-12-04T12:37:46;100685.88;;;1.90;83.46
3780;BME280;1905;52.482;9.802;2023-12-04T12:40:15;100680.69;;;1.90;84.98
3780;BME280;1905;52.482;9.802;2023-12-04T12:42:43;100682.41;;;1.89;83.23
3780;BME280;1905;52.482;9.802;2023-12-04T12:45:11;100672.88;;;1.88;82.28
3780;BME280;1905;52.482;9.802;2023-12-04T12:47:40;100671.13;;;1.90;83.78
3780;BME280;1905;52.482;9.802;2023-12-04T12:50:09;100665.94;;;1.89;82.69
3780;BME280;1905;52.482;9.802;2023-12-04T12:52:40;100670.28;;;1.90;84.46
3780;BME280;1905;52.482;9.802;2023-12-04T12:55:08;100669.41;;;1.89;83.49
3780;BME280;1905;52.482;9.802;2023-12-04T12:57:38;100664.16;;;1.92;83.06
3780;BME280;1905;52.482;9.802;2023-12-04T13:00:07;100663.31;;;1.92;82.56
3780;BME280;1905;52.482;9.802;2023-12-04T13:02:35;100659.84;;;1.93;83.57
3780;BME280;1905;52.482;9.802;2023-12-04T13:05:04;100663.31;;;1.92;83.55
3780;BME280;1905;52.482;9.802;2023-12-04T13:07:33;100649.41;;;1.93;82.11
3780;BME280;1905;52.482;9.802;2023-12-04T13:10:01;100652.88;;;1.95;81.04
3780;BME280;1905;52.482;9.802;2023-12-04T13:12:31;100645.91;;;1.94;81.60
3780;BME280;1905;52.482;9.802;2023-12-04T13:15:01;100652.88;;;1.95;80.97
3780;BME280;1905;52.482;9.802;2023-12-04T13:17:29;100644.19;;;1.94;81.44
3780;BME280;1905;52.482;9.802;2023-12-04T13:19:57;100638.97;;;1.96;82.80
3780;BME280;1905;52.482;9.802;2023-12-04T13:22:26;100639.00;;;1.93;82.23
3780;BME280;1905;52.482;9.802;2023-12-04T13:24:54;100645.03;;;1.93;82.87
3780;BME280;1905;52.482;9.802;2023-12-04T13:27:21;100637.25;;;1.95;84.36
3780;BME280;1905;52.482;9.802;2023-12-04T13:29:49;100633.75;;;1.97;84.61
3780;BME280;1905;52.482;9.802;2023-12-04T13:32:18;100630.28;;;1.98;85.86